sensor_id;sensor_type;location;lat;lon;timestamp;temperature;humidity
23783;DHT22;12071;50.850;4.446;2023-03-16T00:01:15;7.60;1.00
23783;DHT22;12071;50.850;4.446;2023-03-16T00:03:40;7.70;1.00
23783;DHT22;12071;50.850;4.446;2023-03-16T00:06:06;7.70;1.00
23783;DHT22;12071;50.850;4.446;2023-03-16T00:08:31;7.80;18.20
23783;DHT22;12071;50.850;4.446;2023-03-16T00:10:57;7.80;22.40
23783;DHT22;12071;50.850;4.446;2023-03-16T00:13:23;7.60;21.80
23783;DHT22;12071;50.850;4.446;2023-03-16T00:15:57;7.60;29.10
23783;DHT22;12071;50.850;4.446;2023-03-16T00:18:25;7.80;55.80
23783;DHT22;12071;50.850;4.446;2023-03-16T00:20:56;7.80;48.70
23783;DHT22;12071;50.850;4.446;2023-03-16T00:23:23;7.80;75.80
23783;DHT22;12071;50.850;4.446;2023-03-16T00:25:55;7.80;59.10
23783;DHT22;12071;50.850;4.446;2023-03-16T00:28:22;7.80;55.30
23783;DHT22;12071;50.850;4.446;2023-03-16T00:30:48;7.90;90.90
23783;DHT22;12071;50.850;4.446;2023-03-16T00:33:14;7.90;85.90
23783;DHT22;12071;50.850;4.446;2023-03-16T00:35:39;8.00;64.50
23783;DHT22;12071;50.850;4.446;2023-03-16T00:38:14;8.00;98.60
23783;DHT22;12071;50.850;4.446;2023-03-16T00:40:40;8.00;97.80
23783;DHT22;12071;50.850;4.446;2023-03-16T00:43:05;7.90;99.90
23783;DHT22;12071;50.850;4.446;2023-03-16T00:45:31;7.90;99.90
23783;DHT22;12071;50.850;4.446;2023-03-16T00:47:57;8.00;99.90
23783;DHT22;12071;50.850;4.446;2023-03-16T00:50:22;8.10;99.90
23783;DHT22;12071;50.850;4.446;2023-03-16T00:52:48;8.10;99.90
23783;DHT22;12071;50.850;4.446;2023-03-16T00:55:13;8.10;99.90
23783;DHT22;12071;50.850;4.446;2023-03-16T00:57:39;8.00;99.90
23783;DHT22;12071;50.850;4.446;2023-03-16T01:00:06;8.00;99.90
23783;DHT22;12071;50.850;4.446;2023-03-16T01:02:37;8.00;99.90
23783;DHT22;12071;50.850;4.446;2023-03-16T01:05:03;8.00;99.90
23783;DHT22;12071;50.850;4.446;2023-03-16T01:07:30;8.10;99.90
23783;DHT22;12071;50.850;4.446;2023-03-16T01:09:57;8.20;99.90
23783;DHT22;12071;50.850;4.446;2023-03-16T01:12:23;8.10;99.90
23783;DHT22;12071;50.850;4.446;2023-03-16T01:14:49;8.20;99.90
23783;DHT22;12071;50.850;4.446;2023-03-16T01:17:16;8.30;99.90
23783;DHT22;12071;50.850;4.446;2023-03-16T01:19:43;8.30;99.90
23783;DHT22;12071;50.850;4.446;2023-03-16T01:22:09;8.30;99.90
23783;DHT22;12071;50.850;4.446;2023-03-16T01:24:37;8.40;99.90
23783;DHT22;12071;50.850;4.446;2023-03-16T01:27:04;8.20;99.90
23783;DHT22;12071;50.850;4.446;2023-03-16T01:29:30;8.30;99.90
23783;DHT22;12071;50.850;4.446;2023-03-16T01:31:56;8.10;99.90
23783;DHT22;12071;50.850;4.446;2023-03-16T01:34:22;8.20;99.90
23783;DHT22;12071;50.850;4.446;2023-03-16T01:36:49;8.40;99.90
23783;DHT22;12071;50.850;4.446;2023-03-16T01:39:15;8.30;99.90
23783;DHT22;12071;50.850;4.446;2023-03-16T01:41:41;8.20;99.90
23783;DHT22;12071;50.850;4.446;2023-03-16T01:44:22;8.30;99.90
23783;DHT22;12071;50.850;4.446;2023-03-16T01:46:52;8.30;99.90
23783;DHT22;12071;50.850;4.446;2023-03-16T01:49:33;8.30;99.90
23783;DHT22;12071;50.850;4.446;2023-03-16T01:57:18;8.20;1.00
23783;DHT22;12071;50.850;4.446;2023-03-16T01:59:49;8.10;1.00
23783;DHT22;12071;50.850;4.446;2023-03-16T02:02:20;8.10;1.00
23783;DHT22;12071;50.850;4.446;2023-03-16T02:05:01;8.10;83.10
23783;DHT22;12071;50.850;4.446;2023-03-16T02:07:31;8.10;99.90
23783;DHT22;12071;50.850;4.446;2023-03-16T02:09:59;8.10;99.90
23783;DHT22;12071;50.850;4.446;2023-03-16T02:12:27;8.20;99.90
23783;DHT22;12071;50.850;4.446;2023-03-16T02:14:53;8.10;99.90
23783;DHT22;12071;50.850;4.446;2023-03-16T02:17:26;8.10;1.00
23783;DHT22;12071;50.850;4.446;2023-03-16T02:20:20;8.20;2.10
23783;DHT22;12071;50.850;4.446;2023-03-16T02:22:51;8.10;1.00
23783;DHT22;12071;50.850;4.446;2023-03-16T02:25:22;8.00;99.90
23783;DHT22;12071;50.850;4.446;2023-03-16T02:30:20;8.00;1.00
23783;DHT22;12071;50.850;4.446;2023-03-16T02:32:48;8.10;30.10
23783;DHT22;12071;50.850;4.446;2023-03-16T02:35:15;8.20;25.90
23783;DHT22;12071;50.850;4.446;2023-03-16T02:37:41;8.10;1.00
23783;DHT22;12071;50.850;4.446;2023-03-16T02:42:52;8.20;83.10
23783;DHT22;12071;50.850;4.446;2023-03-16T02:45:21;8.30;1.00
23783;DHT22;12071;50.850;4.446;2023-03-16T02:47:48;8.30;1.00
23783;DHT22;12071;50.850;4.446;2023-03-16T02:50:16;8.20;1.00
23783;DHT22;12071;50.850;4.446;2023-03-16T02:52:43;8.10;1.00
23783;DHT22;12071;50.850;4.446;2023-03-16T02:55:09;8.10;1.00
23783;DHT22;12071;50.850;4.446;2023-03-16T02:57:34;8.10;99.90
23783;DHT22;12071;50.850;4.446;2023-03-16T03:00:00;8.10;99.90
23783;DHT22;12071;50.850;4.446;2023-03-16T03:02:25;8.10;99.90
23783;DHT22;12071;50.850;4.446;2023-03-16T03:04:51;8.20;99.90
23783;DHT22;12071;50.850;4.446;2023-03-16T03:07:20;8.10;99.90
23783;DHT22;12071;50.850;4.446;2023-03-16T03:09:46;8.10;99.90
23783;DHT22;12071;50.850;4.446;2023-03-16T03:12:12;8.00;99.90
23783;DHT22;12071;50.850;4.446;2023-03-16T03:14:38;8.10;99.90
23783;DHT22;12071;50.850;4.446;2023-03-16T03:17:08;8.10;99.90
23783;DHT22;12071;50.850;4.446;2023-03-16T03:19:34;8.20;99.90
23783;DHT22;12071;50.850;4.446;2023-03-16T03:22:02;8.10;99.90
23783;DHT22;12071;50.850;4.446;2023-03-16T03:24:30;8.10;99.90
23783;DHT22;12071;50.850;4.446;2023-03-16T03:26:56;8.00;99.90
23783;DHT22;12071;50.850;4.446;2023-03-16T03:29:23;8.10;99.90
23783;DHT22;12071;50.850;4.446;2023-03-16T03:31:48;8.20;99.90
23783;DHT22;12071;50.850;4.446;2023-03-16T03:34:14;8.10;1.00
23783;DHT22;12071;50.850;4.446;2023-03-16T03:36:41;8.10;91.10
23783;DHT22;12071;50.850;4.446;2023-03-16T03:39:06;8.10;93.70
23783;DHT22;12071;50.850;4.446;2023-03-16T03:41:32;8.10;16.70
23783;DHT22;12071;50.850;4.446;2023-03-16T03:43:59;8.00;10.10
23783;DHT22;12071;50.850;4.446;2023-03-16T03:46:25;8.10;49.60
23783;DHT22;12071;50.850;4.446;2023-03-16T03:48:51;8.20;1.00
23783;DHT22;12071;50.850;4.446;2023-03-16T03:51:16;8.20;99.90
23783;DHT22;12071;50.850;4.446;2023-03-16T03:53:42;8.10;99.90
23783;DHT22;12071;50.850;4.446;2023-03-16T03:56:08;8.00;1.00
23783;DHT22;12071;50.850;4.446;2023-03-16T03:58:33;8.20;1.00
23783;DHT22;12071;50.850;4.446;2023-03-16T04:00:59;8.20;99.90
23783;DHT22;12071;50.850;4.446;2023-03-16T04:03:25;8.20;99.90
23783;DHT22;12071;50.850;4.446;2023-03-16T04:05:51;8.20;99.90
23783;DHT22;12071;50.850;4.446;2023-03-16T04:08:16;8.10;99.90
23783;DHT22;12071;50.850;4.446;2023-03-16T04:10:42;8.20;99.90
23783;DHT22;12071;50.850;4.446;2023-03-16T04:13:08;8.20;99.90
23783;DHT22;12071;50.850;4.446;2023-03-16T04:15:34;8.20;57.50
23783;DHT22;12071;50.850;4.446;2023-03-16T04:18:03;8.10;99.90
23783;DHT22;12071;50.850;4.446;2023-03-16T04:20:28;8.10;59.00
23783;DHT22;12071;50.850;4.446;2023-03-16T04:22:54;8.20;18.40
23783;DHT22;12071;50.850;4.446;2023-03-16T04:25:24;8.30;1.50
23783;DHT22;12071;50.850;4.446;2023-03-16T04:27:54;8.20;1.00
23783;DHT22;12071;50.850;4.446;2023-03-16T04:30:20;8.00;1.00
23783;DHT22;12071;50.850;4.446;2023-03-16T04:32:48;7.90;67.00
23783;DHT22;12071;50.850;4.446;2023-03-16T04:35:15;7.80;92.10
23783;DHT22;12071;50.850;4.446;2023-03-16T04:37:40;8.00;99.90
23783;DHT22;12071;50.850;4.446;2023-03-16T04:40:06;8.10;99.90
23783;DHT22;12071;50.850;4.446;2023-03-16T04:42:41;8.10;99.90
23783;DHT22;12071;50.850;4.446;2023-03-16T04:45:07;8.10;99.90
23783;DHT22;12071;50.850;4.446;2023-03-16T04:47:33;8.00;99.90
23783;DHT22;12071;50.850;4.446;2023-03-16T04:50:00;7.90;99.90
23783;DHT22;12071;50.850;4.446;2023-03-16T04:52:25;7.90;99.90
23783;DHT22;12071;50.850;4.446;2023-03-16T04:54:51;7.70;99.90
23783;DHT22;12071;50.850;4.446;2023-03-16T04:57:17;7.70;1.00
23783;DHT22;12071;50.850;4.446;2023-03-16T04:59:43;7.70;1.00
23783;DHT22;12071;50.850;4.446;2023-03-16T05:02:09;7.70;58.70
23783;DHT22;12071;50.850;4.446;2023-03-16T05:04:35;7.80;99.90
23783;DHT22;12071;50.850;4.446;2023-03-16T05:07:01;7.70;99.90
23783;DHT22;12071;50.850;4.446;2023-03-16T05:09:26;7.70;99.90
23783;DHT22;12071;50.850;4.446;2023-03-16T05:11:52;7.50;99.90
23783;DHT22;12071;50.850;4.446;2023-03-16T05:14:17;7.50;92.50
23783;DHT22;12071;50.850;4.446;2023-03-16T05:16:43;7.60;31.00
23783;DHT22;12071;50.850;4.446;2023-03-16T05:19:08;7.60;1.00
23783;DHT22;12071;50.850;4.446;2023-03-16T05:21:34;7.60;99.90
23783;DHT22;12071;50.850;4.446;2023-03-16T05:24:05;7.60;40.90
23783;DHT22;12071;50.850;4.446;2023-03-16T05:26:31;7.80;1.00
23783;DHT22;12071;50.850;4.446;2023-03-16T05:28:56;7.70;99.90
23783;DHT22;12071;50.850;4.446;2023-03-16T05:31:22;7.80;99.90
23783;DHT22;12071;50.850;4.446;2023-03-16T05:33:51;7.80;99.90
23783;DHT22;12071;50.850;4.446;2023-03-16T05:36:18;7.80;99.90
23783;DHT22;12071;50.850;4.446;2023-03-16T05:38:43;7.90;99.90
23783;DHT22;12071;50.850;4.446;2023-03-16T05:41:10;7.90;83.90
23783;DHT22;12071;50.850;4.446;2023-03-16T05:43:35;7.90;55.40
23783;DHT22;12071;50.850;4.446;2023-03-16T05:46:01;7.80;36.20
23783;DHT22;12071;50.850;4.446;2023-03-16T05:48:27;7.70;94.50
23783;DHT22;12071;50.850;4.446;2023-03-16T05:50:52;7.70;86.40
23783;DHT22;12071;50.850;4.446;2023-03-16T05:53:18;7.60;1.00
23783;DHT22;12071;50.850;4.446;2023-03-16T05:55:44;7.60;99.90
23783;DHT22;12071;50.850;4.446;2023-03-16T05:58:10;7.80;99.90
23783;DHT22;12071;50.850;4.446;2023-03-16T06:00:36;7.80;60.00
23783;DHT22;12071;50.850;4.446;2023-03-16T06:03:04;7.80;1.00
23783;DHT22;12071;50.850;4.446;2023-03-16T06:05:30;7.80;1.00
23783;DHT22;12071;50.850;4.446;2023-03-16T06:07:56;7.80;1.00
23783;DHT22;12071;50.850;4.446;2023-03-16T06:10:22;7.80;1.00
23783;DHT22;12071;50.850;4.446;2023-03-16T06:12:48;7.90;1.00
23783;DHT22;12071;50.850;4.446;2023-03-16T06:15:14;7.90;99.90
23783;DHT22;12071;50.850;4.446;2023-03-16T06:17:40;8.00;99.90
23783;DHT22;12071;50.850;4.446;2023-03-16T06:20:07;7.90;99.90
23783;DHT22;12071;50.850;4.446;2023-03-16T06:22:36;7.80;99.90
23783;DHT22;12071;50.850;4.446;2023-03-16T06:25:03;7.80;99.90
23783;DHT22;12071;50.850;4.446;2023-03-16T06:27:29;7.90;99.90
23783;DHT22;12071;50.850;4.446;2023-03-16T06:29:55;7.80;99.90
23783;DHT22;12071;50.850;4.446;2023-03-16T06:32:20;7.90;99.90
23783;DHT22;12071;50.850;4.446;2023-03-16T06:34:46;7.90;99.90
23783;DHT22;12071;50.850;4.446;2023-03-16T06:37:12;8.00;99.90
23783;DHT22;12071;50.850;4.446;2023-03-16T06:39:38;8.00;99.90
23783;DHT22;12071;50.850;4.446;2023-03-16T06:42:04;8.00;39.00
23783;DHT22;12071;50.850;4.446;2023-03-16T06:44:30;8.00;4.20
23783;DHT22;12071;50.850;4.446;2023-03-16T06:46:56;7.90;1.00
23783;DHT22;12071;50.850;4.446;2023-03-16T06:49:22;7.90;1.00
23783;DHT22;12071;50.850;4.446;2023-03-16T06:51:47;8.00;1.00
23783;DHT22;12071;50.850;4.446;2023-03-16T06:54:13;8.00;1.00
23783;DHT22;12071;50.850;4.446;2023-03-16T06:56:39;7.90;1.00
23783;DHT22;12071;50.850;4.446;2023-03-16T06:59:05;8.00;1.00
23783;DHT22;12071;50.850;4.446;2023-03-16T07:01:31;8.10;1.00
23783;DHT22;12071;50.850;4.446;2023-03-16T07:03:57;8.20;1.00
23783;DHT22;12071;50.850;4.446;2023-03-16T07:06:23;8.30;1.00
23783;DHT22;12071;50.850;4.446;2023-03-16T07:08:48;8.20;99.90
23783;DHT22;12071;50.850;4.446;2023-03-16T07:11:14;8.20;99.90
23783;DHT22;12071;50.850;4.446;2023-03-16T07:13:40;8.30;99.90
23783;DHT22;12071;50.850;4.446;2023-03-16T07:16:06;8.40;99.90
23783;DHT22;12071;50.850;4.446;2023-03-16T07:18:32;8.30;99.90
23783;DHT22;12071;50.850;4.446;2023-03-16T07:20:58;8.20;99.90
23783;DHT22;12071;50.850;4.446;2023-03-16T07:23:24;8.30;99.90
23783;DHT22;12071;50.850;4.446;2023-03-16T07:25:50;8.30;99.90
23783;DHT22;12071;50.850;4.446;2023-03-16T07:28:19;8.30;99.90
23783;DHT22;12071;50.850;4.446;2023-03-16T07:30:46;8.40;99.90
23783;DHT22;12071;50.850;4.446;2023-03-16T07:33:13;8.50;99.90
23783;DHT22;12071;50.850;4.446;2023-03-16T07:35:39;8.50;99.90
23783;DHT22;12071;50.850;4.446;2023-03-16T07:38:05;8.60;99.90
23783;DHT22;12071;50.850;4.446;2023-03-16T07:40:32;8.60;99.90
23783;DHT22;12071;50.850;4.446;2023-03-16T07:42:59;8.80;57.20
23783;DHT22;12071;50.850;4.446;2023-03-16T07:45:24;8.80;30.50
23783;DHT22;12071;50.850;4.446;2023-03-16T07:47:50;8.90;1.00
23783;DHT22;12071;50.850;4.446;2023-03-16T07:50:16;8.90;1.00
23783;DHT22;12071;50.850;4.446;2023-03-16T07:52:43;9.00;1.00
23783;DHT22;12071;50.850;4.446;2023-03-16T07:55:11;9.10;1.00
23783;DHT22;12071;50.850;4.446;2023-03-16T07:57:36;9.30;99.90
23783;DHT22;12071;50.850;4.446;2023-03-16T08:00:04;9.30;99.90
23783;DHT22;12071;50.850;4.446;2023-03-16T08:02:32;9.30;99.90
23783;DHT22;12071;50.850;4.446;2023-03-16T08:04:57;9.60;99.90
23783;DHT22;12071;50.850;4.446;2023-03-16T08:07:23;9.70;99.90
23783;DHT22;12071;50.850;4.446;2023-03-16T08:09:49;9.70;99.90
23783;DHT22;12071;50.850;4.446;2023-03-16T08:12:16;9.70;99.90
23783;DHT22;12071;50.850;4.446;2023-03-16T08:14:41;9.70;99.90
23783;DHT22;12071;50.850;4.446;2023-03-16T08:17:09;9.70;77.60
23783;DHT22;12071;50.850;4.446;2023-03-16T08:19:36;9.80;52.30
23783;DHT22;12071;50.850;4.446;2023-03-16T08:22:03;9.90;41.40
23783;DHT22;12071;50.850;4.446;2023-03-16T08:24:30;9.90;25.80
23783;DHT22;12071;50.850;4.446;2023-03-16T08:26:57;9.90;1.00
23783;DHT22;12071;50.850;4.446;2023-03-16T08:29:23;10.00;1.00
23783;DHT22;12071;50.850;4.446;2023-03-16T08:31:49;10.10;1.00
23783;DHT22;12071;50.850;4.446;2023-03-16T08:34:15;10.20;1.00
23783;DHT22;12071;50.850;4.446;2023-03-16T08:36:43;10.30;1.00
23783;DHT22;12071;50.850;4.446;2023-03-16T08:39:08;10.50;1.00
23783;DHT22;12071;50.850;4.446;2023-03-16T08:41:34;10.70;1.00
23783;DHT22;12071;50.850;4.446;2023-03-16T08:43:59;10.80;1.00
23783;DHT22;12071;50.850;4.446;2023-03-16T08:46:26;10.80;1.00
23783;DHT22;12071;50.850;4.446;2023-03-16T08:48:51;10.90;1.00
23783;DHT22;12071;50.850;4.446;2023-03-16T08:51:20;11.00;1.00
23783;DHT22;12071;50.850;4.446;2023-03-16T08:53:45;11.10;99.90
23783;DHT22;12071;50.850;4.446;2023-03-16T08:56:12;11.20;99.90
23783;DHT22;12071;50.850;4.446;2023-03-16T08:58:40;11.20;99.90
23783;DHT22;12071;50.850;4.446;2023-03-16T09:01:11;11.20;99.90
23783;DHT22;12071;50.850;4.446;2023-03-16T09:03:37;11.40;99.90
23783;DHT22;12071;50.850;4.446;2023-03-16T09:06:06;11.40;99.90
23783;DHT22;12071;50.850;4.446;2023-03-16T09:08:34;11.40;99.90
23783;DHT22;12071;50.850;4.446;2023-03-16T09:11:08;11.50;99.90
23783;DHT22;12071;50.850;4.446;2023-03-16T09:13:35;11.60;99.90
23783;DHT22;12071;50.850;4.446;2023-03-16T09:16:03;11.70;99.90
23783;DHT22;12071;50.850;4.446;2023-03-16T09:18:30;11.80;99.90
23783;DHT22;12071;50.850;4.446;2023-03-16T09:21:04;11.80;99.90
23783;DHT22;12071;50.850;4.446;2023-03-16T09:23:31;11.70;99.90
23783;DHT22;12071;50.850;4.446;2023-03-16T09:26:00;11.70;99.90
23783;DHT22;12071;50.850;4.446;2023-03-16T09:28:27;11.80;99.90
23783;DHT22;12071;50.850;4.446;2023-03-16T09:30:54;11.70;99.90
23783;DHT22;12071;50.850;4.446;2023-03-16T09:33:22;11.60;99.90
23783;DHT22;12071;50.850;4.446;2023-03-16T09:35:49;11.80;99.90
23783;DHT22;12071;50.850;4.446;2023-03-16T09:38:15;11.90;99.90
23783;DHT22;12071;50.850;4.446;2023-03-16T09:40:42;11.90;99.90
23783;DHT22;12071;50.850;4.446;2023-03-16T09:43:31;11.60;99.90
23783;DHT22;12071;50.850;4.446;2023-03-16T09:46:10;11.60;99.90
23783;DHT22;12071;50.850;4.446;2023-03-16T09:48:38;11.80;99.90
23783;DHT22;12071;50.850;4.446;2023-03-16T09:51:12;11.90;99.90
23783;DHT22;12071;50.850;4.446;2023-03-16T09:53:41;12.10;99.90
23783;DHT22;12071;50.850;4.446;2023-03-16T09:56:35;12.10;99.90
23783;DHT22;12071;50.850;4.446;2023-03-16T09:58:59;12.10;99.90
23783;DHT22;12071;50.850;4.446;2023-03-16T10:10:02;12.20;99.90
23783;DHT22;12071;50.850;4.446;2023-03-16T10:12:35;12.30;99.90
23783;DHT22;12071;50.850;4.446;2023-03-16T10:17:50;12.50;99.90
23783;DHT22;12071;50.850;4.446;2023-03-16T10:20:20;12.60;99.90
23783;DHT22;12071;50.850;4.446;2023-03-16T10:22:48;12.70;99.90
23783;DHT22;12071;50.850;4.446;2023-03-16T10:25:26;12.80;99.90
23783;DHT22;12071;50.850;4.446;2023-03-16T10:27:53;12.70;99.90
23783;DHT22;12071;50.850;4.446;2023-03-16T10:30:32;12.50;99.90
23783;DHT22;12071;50.850;4.446;2023-03-16T10:38:44;13.00;99.90
23783;DHT22;12071;50.850;4.446;2023-03-16T10:43:45;13.40;99.90
23783;DHT22;12071;50.850;4.446;2023-03-16T10:46:12;13.40;99.90
23783;DHT22;12071;50.850;4.446;2023-03-16T10:48:38;13.40;99.90
23783;DHT22;12071;50.850;4.446;2023-03-16T10:51:12;13.30;99.90
23783;DHT22;12071;50.850;4.446;2023-03-16T10:53:43;13.20;99.90
23783;DHT22;12071;50.850;4.446;2023-03-16T10:56:20;13.60;99.90
23783;DHT22;12071;50.850;4.446;2023-03-16T10:58:47;14.00;99.90
23783;DHT22;12071;50.850;4.446;2023-03-16T11:01:24;14.10;97.40
23783;DHT22;12071;50.850;4.446;2023-03-16T11:03:55;14.10;89.60
23783;DHT22;12071;50.850;4.446;2023-03-16T11:06:29;14.10;94.50
23783;DHT22;12071;50.850;4.446;2023-03-16T11:09:19;14.20;79.10
23783;DHT22;12071;50.850;4.446;2023-03-16T11:11:47;14.30;59.20
23783;DHT22;12071;50.850;4.446;2023-03-16T11:14:14;14.30;62.40
23783;DHT22;12071;50.850;4.446;2023-03-16T11:16:46;14.40;56.00
23783;DHT22;12071;50.850;4.446;2023-03-16T11:19:38;14.40;51.10
23783;DHT22;12071;50.850;4.446;2023-03-16T11:22:17;14.50;48.20
23783;DHT22;12071;50.850;4.446;2023-03-16T11:27:29;14.90;46.30
23783;DHT22;12071;50.850;4.446;2023-03-16T11:32:40;14.90;36.60
23783;DHT22;12071;50.850;4.446;2023-03-16T11:35:17;15.00;20.20
23783;DHT22;12071;50.850;4.446;2023-03-16T11:37:49;14.80;1.00
23783;DHT22;12071;50.850;4.446;2023-03-16T11:40:25;14.70;1.00
23783;DHT22;12071;50.850;4.446;2023-03-16T11:45:48;14.60;1.00
23783;DHT22;12071;50.850;4.446;2023-03-16T11:53:29;14.10;1.00
23783;DHT22;12071;50.850;4.446;2023-03-16T11:56:29;14.00;1.00
23783;DHT22;12071;50.850;4.446;2023-03-16T12:07:11;14.30;1.00
23783;DHT22;12071;50.850;4.446;2023-03-16T12:12:41;14.30;1.00
23783;DHT22;12071;50.850;4.446;2023-03-16T12:15:23;14.50;1.00
23783;DHT22;12071;50.850;4.446;2023-03-16T12:18:01;14.50;1.00
23783;DHT22;12071;50.850;4.446;2023-03-16T12:20:34;14.70;1.00
23783;DHT22;12071;50.850;4.446;2023-03-16T12:23:12;14.90;1.00
23783;DHT22;12071;50.850;4.446;2023-03-16T12:25:41;15.00;1.00
23783;DHT22;12071;50.850;4.446;2023-03-16T12:28:20;15.00;1.00
23783;DHT22;12071;50.850;4.446;2023-03-16T12:31:08;15.20;1.00
23783;DHT22;12071;50.850;4.446;2023-03-16T12:38:55;15.40;1.00
23783;DHT22;12071;50.850;4.446;2023-03-16T12:44:10;15.50;1.00
23783;DHT22;12071;50.850;4.446;2023-03-16T12:49:44;15.90;1.00
23783;DHT22;12071;50.850;4.446;2023-03-16T12:52:12;16.10;1.00
23783;DHT22;12071;50.850;4.446;2023-03-16T12:54:52;16.10;1.00
23783;DHT22;12071;50.850;4.446;2023-03-16T12:57:23;16.20;1.00
23783;DHT22;12071;50.850;4.446;2023-03-16T12:59:54;16.20;1.00
23783;DHT22;12071;50.850;4.446;2023-03-16T13:02:28;16.50;1.00
23783;DHT22;12071;50.850;4.446;2023-03-16T13:05:00;16.60;1.00
23783;DHT22;12071;50.850;4.446;2023-03-16T13:07:29;16.80;1.00
23783;DHT22;12071;50.850;4.446;2023-03-16T13:10:02;17.00;1.00
23783;DHT22;12071;50.850;4.446;2023-03-16T13:12:33;17.10;1.00
23783;DHT22;12071;50.850;4.446;2023-03-16T13:17:45;16.80;1.00
23783;DHT22;12071;50.850;4.446;2023-03-16T13:25:15;16.60;1.00
23783;DHT22;12071;50.850;4.446;2023-03-16T13:27:45;16.50;1.00
23783;DHT22;12071;50.850;4.446;2023-03-16T13:32:44;16.80;1.00
23783;DHT22;12071;50.850;4.446;2023-03-16T13:35:26;16.80;1.00
23783;DHT22;12071;50.850;4.446;2023-03-16T13:37:52;16.80;1.00
23783;DHT22;12071;50.850;4.446;2023-03-16T13:40:21;16.70;1.00
23783;DHT22;12071;50.850;4.446;2023-03-16T13:42:48;16.90;1.00
23783;DHT22;12071;50.850;4.446;2023-03-16T13:45:26;16.90;1.00
23783;DHT22;12071;50.850;4.446;2023-03-16T13:47:52;16.90;1.00
23783;DHT22;12071;50.850;4.446;2023-03-16T13:50:18;16.90;1.00
23783;DHT22;12071;50.850;4.446;2023-03-16T13:53:27;17.10;1.00
23783;DHT22;12071;50.850;4.446;2023-03-16T13:55:53;17.20;1.00
23783;DHT22;12071;50.850;4.446;2023-03-16T13:58:23;17.40;1.00
23783;DHT22;12071;50.850;4.446;2023-03-16T14:00:55;17.60;1.00
23783;DHT22;12071;50.850;4.446;2023-03-16T14:03:22;17.90;1.00
23783;DHT22;12071;50.850;4.446;2023-03-16T14:05:49;18.10;1.00
23783;DHT22;12071;50.850;4.446;2023-03-16T14:08:16;18.00;1.00
23783;DHT22;12071;50.850;4.446;2023-03-16T14:10:43;18.40;1.00
23783;DHT22;12071;50.850;4.446;2023-03-16T14:13:23;19.50;1.00
23783;DHT22;12071;50.850;4.446;2023-03-16T14:15:51;20.90;1.00
23783;DHT22;12071;50.850;4.446;2023-03-16T14:18:19;21.40;1.00
23783;DHT22;12071;50.850;4.446;2023-03-16T14:20:54;21.20;1.00
23783;DHT22;12071;50.850;4.446;2023-03-16T14:23:34;21.30;1.00
23783;DHT22;12071;50.850;4.446;2023-03-16T14:26:03;21.30;1.00
23783;DHT22;12071;50.850;4.446;2023-03-16T14:28:32;21.40;1.00
23783;DHT22;12071;50.850;4.446;2023-03-16T14:31:08;20.60;1.00
23783;DHT22;12071;50.850;4.446;2023-03-16T14:33:36;20.30;1.00
23783;DHT22;12071;50.850;4.446;2023-03-16T14:36:18;19.90;1.00
23783;DHT22;12071;50.850;4.446;2023-03-16T14:38:45;19.40;1.00
23783;DHT22;12071;50.850;4.446;2023-03-16T14:41:25;19.30;1.00
23783;DHT22;12071;50.850;4.446;2023-03-16T14:43:58;19.40;1.00
23783;DHT22;12071;50.850;4.446;2023-03-16T14:46:36;19.70;1.00
23783;DHT22;12071;50.850;4.446;2023-03-16T14:49:28;19.70;1.00
23783;DHT22;12071;50.850;4.446;2023-03-16T14:51:54;19.90;1.00
23783;DHT22;12071;50.850;4.446;2023-03-16T14:54:22;20.70;1.00
23783;DHT22;12071;50.850;4.446;2023-03-16T14:56:53;21.30;1.00
23783;DHT22;12071;50.850;4.446;2023-03-16T14:59:20;22.50;1.00
23783;DHT22;12071;50.850;4.446;2023-03-16T15:01:46;24.00;1.00
23783;DHT22;12071;50.850;4.446;2023-03-16T15:04:14;24.70;1.00
23783;DHT22;12071;50.850;4.446;2023-03-16T15:06:41;25.10;1.00
23783;DHT22;12071;50.850;4.446;2023-03-16T15:09:30;25.60;1.00
23783;DHT22;12071;50.850;4.446;2023-03-16T15:11:56;25.10;1.00
23783;DHT22;12071;50.850;4.446;2023-03-16T15:14:22;24.90;1.00
23783;DHT22;12071;50.850;4.446;2023-03-16T15:17:08;25.10;1.00
23783;DHT22;12071;50.850;4.446;2023-03-16T15:19:35;24.10;1.00
23783;DHT22;12071;50.850;4.446;2023-03-16T15:22:02;22.60;1.00
23783;DHT22;12071;50.850;4.446;2023-03-16T15:24:27;22.00;1.00
23783;DHT22;12071;50.850;4.446;2023-03-16T15:26:55;21.90;1.00
23783;DHT22;12071;50.850;4.446;2023-03-16T15:29:21;21.70;1.00
23783;DHT22;12071;50.850;4.446;2023-03-16T15:31:47;21.40;1.00
23783;DHT22;12071;50.850;4.446;2023-03-16T15:34:12;21.80;1.00
23783;DHT22;12071;50.850;4.446;2023-03-16T15:36:38;22.60;1.00
23783;DHT22;12071;50.850;4.446;2023-03-16T15:39:04;23.40;1.00
23783;DHT22;12071;50.850;4.446;2023-03-16T15:41:32;23.90;1.00
23783;DHT22;12071;50.850;4.446;2023-03-16T15:43:58;24.00;1.00
23783;DHT22;12071;50.850;4.446;2023-03-16T15:46:26;23.60;1.00
23783;DHT22;12071;50.850;4.446;2023-03-16T15:48:52;22.80;1.00
23783;DHT22;12071;50.850;4.446;2023-03-16T15:51:26;21.80;1.00
23783;DHT22;12071;50.850;4.446;2023-03-16T15:53:58;21.50;1.00
23783;DHT22;12071;50.850;4.446;2023-03-16T15:56:25;20.80;1.00
23783;DHT22;12071;50.850;4.446;2023-03-16T15:58:55;20.20;1.00
23783;DHT22;12071;50.850;4.446;2023-03-16T16:01:25;19.90;1.00
23783;DHT22;12071;50.850;4.446;2023-03-16T16:03:53;19.80;1.00
23783;DHT22;12071;50.850;4.446;2023-03-16T16:06:20;19.90;1.00
23783;DHT22;12071;50.850;4.446;2023-03-16T16:08:46;20.00;1.00
23783;DHT22;12071;50.850;4.446;2023-03-16T16:11:25;20.10;1.00
23783;DHT22;12071;50.850;4.446;2023-03-16T16:13:55;20.00;1.00
23783;DHT22;12071;50.850;4.446;2023-03-16T16:16:22;20.30;1.00
23783;DHT22;12071;50.850;4.446;2023-03-16T16:18:50;20.80;1.00
23783;DHT22;12071;50.850;4.446;2023-03-16T16:21:17;21.50;1.00
23783;DHT22;12071;50.850;4.446;2023-03-16T16:23:44;21.90;1.00
23783;DHT22;12071;50.850;4.446;2023-03-16T16:26:21;22.00;1.00
23783;DHT22;12071;50.850;4.446;2023-03-16T16:28:48;22.00;1.00
23783;DHT22;12071;50.850;4.446;2023-03-16T16:31:21;21.90;1.00
23783;DHT22;12071;50.850;4.446;2023-03-16T16:33:47;21.80;1.00
23783;DHT22;12071;50.850;4.446;2023-03-16T16:36:15;20.70;1.00
23783;DHT22;12071;50.850;4.446;2023-03-16T16:38:43;20.10;1.00
23783;DHT22;12071;50.850;4.446;2023-03-16T16:41:21;19.80;1.00
23783;DHT22;12071;50.850;4.446;2023-03-16T16:43:47;19.30;1.00
23783;DHT22;12071;50.850;4.446;2023-03-16T16:46:19;18.90;1.00
23783;DHT22;12071;50.850;4.446;2023-03-16T16:48:56;18.60;1.00
23783;DHT22;12071;50.850;4.446;2023-03-16T16:51:25;18.20;1.00
23783;DHT22;12071;50.850;4.446;2023-03-16T16:53:53;18.10;1.00
23783;DHT22;12071;50.850;4.446;2023-03-16T16:58:52;17.50;1.00
23783;DHT22;12071;50.850;4.446;2023-03-16T17:01:25;17.10;1.00
23783;DHT22;12071;50.850;4.446;2023-03-16T17:03:51;17.00;1.00
23783;DHT22;12071;50.850;4.446;2023-03-16T17:06:18;17.00;1.00
23783;DHT22;12071;50.850;4.446;2023-03-16T17:08:45;17.00;1.00
23783;DHT22;12071;50.850;4.446;2023-03-16T17:11:31;17.10;1.00
23783;DHT22;12071;50.850;4.446;2023-03-16T17:13:59;16.90;1.00